sensor_id;sensor_type;location;lat;lon;timestamp;temperature;humidity
36856;DHT22;22788;51.434;6.786;2023-06-10T00:00:45;23.20;93.50
36856;DHT22;22788;51.434;6.786;2023-06-10T00:03:10;23.20;93.40
36856;DHT22;22788;51.434;6.786;2023-06-10T00:05:36;23.20;93.50
36856;DHT22;22788;51.434;6.786;2023-06-10T00:08:02;23.20;93.40
36856;DHT22;22788;51.434;6.786;2023-06-10T00:10:27;23.20;93.20
36856;DHT22;22788;51.434;6.786;2023-06-10T00:12:54;23.20;93.20
36856;DHT22;22788;51.434;6.786;2023-06-10T00:15:20;23.20;93.60
36856;DHT22;22788;51.434;6.786;2023-06-10T00:17:45;23.10;93.30
36856;DHT22;22788;51.434;6.786;2023-06-10T00:20:11;23.10;93.60
36856;DHT22;22788;51.434;6.786;2023-06-10T00:22:37;23.10;93.60
36856;DHT22;22788;51.434;6.786;2023-06-10T00:25:04;23.10;93.60
36856;DHT22;22788;51.434;6.786;2023-06-10T00:27:30;23.00;93.50
36856;DHT22;22788;51.434;6.786;2023-06-10T00:29:57;23.00;93.30
36856;DHT22;22788;51.434;6.786;2023-06-10T00:32:22;23.00;93.70
36856;DHT22;22788;51.434;6.786;2023-06-10T00:34:48;23.00;93.10
36856;DHT22;22788;51.434;6.786;2023-06-10T00:37:13;23.00;93.70
36856;DHT22;22788;51.434;6.786;2023-06-10T00:39:39;23.00;93.70
36856;DHT22;22788;51.434;6.786;2023-06-10T00:42:06;23.00;93.80
36856;DHT22;22788;51.434;6.786;2023-06-10T00:44:31;22.90;93.60
36856;DHT22;22788;51.434;6.786;2023-06-10T00:46:58;22.90;93.40
36856;DHT22;22788;51.434;6.786;2023-06-10T00:49:24;22.90;93.70
36856;DHT22;22788;51.434;6.786;2023-06-10T00:51:51;22.90;93.60
36856;DHT22;22788;51.434;6.786;2023-06-10T00:54:17;22.90;93.70
36856;DHT22;22788;51.434;6.786;2023-06-10T00:56:43;22.90;93.70
36856;DHT22;22788;51.434;6.786;2023-06-10T00:59:09;22.90;93.70
36856;DHT22;22788;51.434;6.786;2023-06-10T01:01:35;22.90;93.70
36856;DHT22;22788;51.434;6.786;2023-06-10T01:04:02;22.80;94.00
36856;DHT22;22788;51.434;6.786;2023-06-10T01:06:34;22.90;94.00
36856;DHT22;22788;51.434;6.786;2023-06-10T01:09:10;22.80;93.90
36856;DHT22;22788;51.434;6.786;2023-06-10T01:11:45;22.80;94.00
36856;DHT22;22788;51.434;6.786;2023-06-10T01:14:13;22.80;93.90
36856;DHT22;22788;51.434;6.786;2023-06-10T01:16:39;22.80;94.00
36856;DHT22;22788;51.434;6.786;2023-06-10T01:19:06;22.80;94.00
36856;DHT22;22788;51.434;6.786;2023-06-10T01:21:33;22.80;94.10
36856;DHT22;22788;51.434;6.786;2023-06-10T01:23:58;22.80;93.90
36856;DHT22;22788;51.434;6.786;2023-06-10T01:26:29;22.70;93.90
36856;DHT22;22788;51.434;6.786;2023-06-10T01:28:59;22.70;94.00
36856;DHT22;22788;51.434;6.786;2023-06-10T01:31:31;22.70;94.20
36856;DHT22;22788;51.434;6.786;2023-06-10T01:33:58;22.70;94.20
36856;DHT22;22788;51.434;6.786;2023-06-10T01:36:24;22.70;94.20
36856;DHT22;22788;51.434;6.786;2023-06-10T01:38:52;22.70;94.20
36856;DHT22;22788;51.434;6.786;2023-06-10T01:41:18;22.70;94.30
36856;DHT22;22788;51.434;6.786;2023-06-10T01:43:45;22.70;94.30
36856;DHT22;22788;51.434;6.786;2023-06-10T01:46:11;22.70;94.20
36856;DHT22;22788;51.434;6.786;2023-06-10T01:48:37;22.60;94.50
36856;DHT22;22788;51.434;6.786;2023-06-10T01:51:03;22.60;94.30
36856;DHT22;22788;51.434;6.786;2023-06-10T01:53:29;22.60;94.20
36856;DHT22;22788;51.434;6.786;2023-06-10T01:55:56;22.60;94.20
36856;DHT22;22788;51.434;6.786;2023-06-10T01:58:21;22.60;94.30
36856;DHT22;22788;51.434;6.786;2023-06-10T02:00:47;22.50;94.30
36856;DHT22;22788;51.434;6.786;2023-06-10T02:03:13;22.50;94.30
36856;DHT22;22788;51.434;6.786;2023-06-10T02:05:39;22.50;94.50
36856;DHT22;22788;51.434;6.786;2023-06-10T02:08:05;22.50;94.50
36856;DHT22;22788;51.434;6.786;2023-06-10T02:10:30;22.50;94.30
36856;DHT22;22788;51.434;6.786;2023-06-10T02:12:58;22.50;94.60
36856;DHT22;22788;51.434;6.786;2023-06-10T02:15:23;22.50;94.50
36856;DHT22;22788;51.434;6.786;2023-06-10T02:17:49;22.50;94.60
36856;DHT22;22788;51.434;6.786;2023-06-10T02:20:15;22.50;94.60
36856;DHT22;22788;51.434;6.786;2023-06-10T02:22:40;22.50;94.70
36856;DHT22;22788;51.434;6.786;2023-06-10T02:25:07;22.50;94.60
36856;DHT22;22788;51.434;6.786;2023-06-10T02:27:32;22.40;94.60
36856;DHT22;22788;51.434;6.786;2023-06-10T02:29:59;22.40;94.70
36856;DHT22;22788;51.434;6.786;2023-06-10T02:32:25;22.40;94.70
36856;DHT22;22788;51.434;6.786;2023-06-10T02:34:51;22.40;94.70
36856;DHT22;22788;51.434;6.786;2023-06-10T02:37:16;22.40;94.70
36856;DHT22;22788;51.434;6.786;2023-06-10T02:39:42;22.40;94.70
36856;DHT22;22788;51.434;6.786;2023-06-10T02:42:08;22.40;94.80
36856;DHT22;22788;51.434;6.786;2023-06-10T02:44:33;22.40;94.80
36856;DHT22;22788;51.434;6.786;2023-06-10T02:47:00;22.40;94.70
36856;DHT22;22788;51.434;6.786;2023-06-10T02:49:26;22.30;94.90
36856;DHT22;22788;51.434;6.786;2023-06-10T02:51:52;22.30;94.80
36856;DHT22;22788;51.434;6.786;2023-06-10T02:54:17;22.30;94.90
36856;DHT22;22788;51.434;6.786;2023-06-10T02:56:43;22.30;94.90
36856;DHT22;22788;51.434;6.786;2023-06-10T02:59:08;22.30;94.90
36856;DHT22;22788;51.434;6.786;2023-06-10T03:01:34;22.30;95.00
36856;DHT22;22788;51.434;6.786;2023-06-10T03:04:01;22.30;95.00
36856;DHT22;22788;51.434;6.786;2023-06-10T03:06:27;22.20;95.00
36856;DHT22;22788;51.434;6.786;2023-06-10T03:08:52;22.20;95.10
36856;DHT22;22788;51.434;6.786;2023-06-10T03:11:18;22.20;95.00
36856;DHT22;22788;51.434;6.786;2023-06-10T03:13:44;22.10;95.00
36856;DHT22;22788;51.434;6.786;2023-06-10T03:16:09;22.20;95.10
36856;DHT22;22788;51.434;6.786;2023-06-10T03:18:35;22.20;95.10
36856;DHT22;22788;51.434;6.786;2023-06-10T03:21:02;22.10;95.20
36856;DHT22;22788;51.434;6.786;2023-06-10T03:23:27;22.10;95.20
36856;DHT22;22788;51.434;6.786;2023-06-10T03:25:53;22.10;95.30
36856;DHT22;22788;51.434;6.786;2023-06-10T03:28:19;22.10;95.30
36856;DHT22;22788;51.434;6.786;2023-06-10T03:30:44;22.10;95.30
36856;DHT22;22788;51.434;6.786;2023-06-10T03:33:10;22.10;95.40
36856;DHT22;22788;51.434;6.786;2023-06-10T03:35:35;22.10;95.40
36856;DHT22;22788;51.434;6.786;2023-06-10T03:38:02;22.00;95.40
36856;DHT22;22788;51.434;6.786;2023-06-10T03:40:28;22.00;95.70
36856;DHT22;22788;51.434;6.786;2023-06-10T03:42:53;22.00;95.50
36856;DHT22;22788;51.434;6.786;2023-06-10T03:45:19;22.00;95.60
36856;DHT22;22788;51.434;6.786;2023-06-10T03:47:45;22.00;95.60
36856;DHT22;22788;51.434;6.786;2023-06-10T03:50:10;21.90;95.60
36856;DHT22;22788;51.434;6.786;2023-06-10T03:52:37;21.90;95.70
36856;DHT22;22788;51.434;6.786;2023-06-10T03:55:05;22.00;95.70
36856;DHT22;22788;51.434;6.786;2023-06-10T03:57:31;21.90;95.70
36856;DHT22;22788;51.434;6.786;2023-06-10T03:59:57;21.90;95.70
36856;DHT22;22788;51.434;6.786;2023-06-10T04:02:22;21.90;95.80
36856;DHT22;22788;51.434;6.786;2023-06-10T04:04:48;21.90;95.80
36856;DHT22;22788;51.434;6.786;2023-06-10T04:07:14;21.90;96.00
36856;DHT22;22788;51.434;6.786;2023-06-10T04:09:39;21.90;95.90
36856;DHT22;22788;51.434;6.786;2023-06-10T04:12:07;21.90;95.90
36856;DHT22;22788;51.434;6.786;2023-06-10T04:14:33;21.90;95.90
36856;DHT22;22788;51.434;6.786;2023-06-10T04:16:58;21.90;96.00
36856;DHT22;22788;51.434;6.786;2023-06-10T04:19:24;21.90;95.90
36856;DHT22;22788;51.434;6.786;2023-06-10T04:21:50;21.90;96.00
36856;DHT22;22788;51.434;6.786;2023-06-10T04:24:15;21.90;96.00
36856;DHT22;22788;51.434;6.786;2023-06-10T04:26:41;21.90;96.00
36856;DHT22;22788;51.434;6.786;2023-06-10T04:29:08;21.90;95.90
36856;DHT22;22788;51.434;6.786;2023-06-10T04:31:33;21.90;96.00
36856;DHT22;22788;51.434;6.786;2023-06-10T04:33:59;21.80;96.00
36856;DHT22;22788;51.434;6.786;2023-06-10T04:36:25;21.80;96.00
36856;DHT22;22788;51.434;6.786;2023-06-10T04:38:50;21.80;96.00
36856;DHT22;22788;51.434;6.786;2023-06-10T04:41:16;21.80;96.00
36856;DHT22;22788;51.434;6.786;2023-06-10T04:43:41;21.80;96.10
36856;DHT22;22788;51.434;6.786;2023-06-10T04:46:08;21.80;96.10
36856;DHT22;22788;51.434;6.786;2023-06-10T04:48:34;21.80;96.10
36856;DHT22;22788;51.434;6.786;2023-06-10T04:51:00;21.80;96.10
36856;DHT22;22788;51.434;6.786;2023-06-10T04:53:25;21.80;96.10
36856;DHT22;22788;51.434;6.786;2023-06-10T04:55:51;21.80;96.20
36856;DHT22;22788;51.434;6.786;2023-06-10T04:58:16;21.70;96.20
36856;DHT22;22788;51.434;6.786;2023-06-10T05:00:42;21.80;96.30
36856;DHT22;22788;51.434;6.786;2023-06-10T05:03:09;21.70;96.30
36856;DHT22;22788;51.434;6.786;2023-06-10T05:05:34;21.70;96.30
36856;DHT22;22788;51.434;6.786;2023-06-10T05:08:00;21.70;96.20
36856;DHT22;22788;51.434;6.786;2023-06-10T05:10:26;21.70;96.30
36856;DHT22;22788;51.434;6.786;2023-06-10T05:12:51;21.70;96.20
36856;DHT22;22788;51.434;6.786;2023-06-10T05:15:17;21.70;96.40
36856;DHT22;22788;51.434;6.786;2023-06-10T05:17:42;21.70;96.20
36856;DHT22;22788;51.434;6.786;2023-06-10T05:20:11;21.70;96.30
36856;DHT22;22788;51.434;6.786;2023-06-10T05:22:36;21.70;96.30
36856;DHT22;22788;51.434;6.786;2023-06-10T05:25:02;21.80;96.20
36856;DHT22;22788;51.434;6.786;2023-06-10T05:27:28;21.70;96.30
36856;DHT22;22788;51.434;6.786;2023-06-10T05:29:53;21.70;96.30
36856;DHT22;22788;51.434;6.786;2023-06-10T05:32:19;21.60;96.30
36856;DHT22;22788;51.434;6.786;2023-06-10T05:34:45;21.60;96.10
36856;DHT22;22788;51.434;6.786;2023-06-10T05:37:12;21.60;95.90
36856;DHT22;22788;51.434;6.786;2023-06-10T05:39:38;21.60;96.40
36856;DHT22;22788;51.434;6.786;2023-06-10T05:42:04;21.60;96.50
36856;DHT22;22788;51.434;6.786;2023-06-10T05:44:30;21.60;96.00
36856;DHT22;22788;51.434;6.786;2023-06-10T05:46:56;21.60;96.40
36856;DHT22;22788;51.434;6.786;2023-06-10T05:49:21;21.60;96.20
36856;DHT22;22788;51.434;6.786;2023-06-10T05:51:47;21.60;96.20
36856;DHT22;22788;51.434;6.786;2023-06-10T05:54:14;21.60;96.30
36856;DHT22;22788;51.434;6.786;2023-06-10T05:56:39;21.70;96.10
36856;DHT22;22788;51.434;6.786;2023-06-10T05:59:05;21.70;96.20
36856;DHT22;22788;51.434;6.786;2023-06-10T06:01:31;21.70;95.80
36856;DHT22;22788;51.434;6.786;2023-06-10T06:03:56;21.60;95.60
36856;DHT22;22788;51.434;6.786;2023-06-10T06:06:22;21.60;96.10
36856;DHT22;22788;51.434;6.786;2023-06-10T06:08:48;21.60;96.30
36856;DHT22;22788;51.434;6.786;2023-06-10T06:11:15;21.60;96.10
36856;DHT22;22788;51.434;6.786;2023-06-10T06:13:40;21.60;96.00
36856;DHT22;22788;51.434;6.786;2023-06-10T06:16:06;21.70;96.20
36856;DHT22;22788;51.434;6.786;2023-06-10T06:18:31;21.70;96.10
36856;DHT22;22788;51.434;6.786;2023-06-10T06:20:57;21.70;95.70
36856;DHT22;22788;51.434;6.786;2023-06-10T06:23:23;21.80;96.20
36856;DHT22;22788;51.434;6.786;2023-06-10T06:25:48;21.80;95.50
36856;DHT22;22788;51.434;6.786;2023-06-10T06:28:15;21.70;95.20
36856;DHT22;22788;51.434;6.786;2023-06-10T06:30:41;21.60;95.50
36856;DHT22;22788;51.434;6.786;2023-06-10T06:33:07;21.70;95.40
36856;DHT22;22788;51.434;6.786;2023-06-10T06:35:33;21.70;95.50
36856;DHT22;22788;51.434;6.786;2023-06-10T06:37:58;21.70;95.50
36856;DHT22;22788;51.434;6.786;2023-06-10T06:40:24;21.70;95.80
36856;DHT22;22788;51.434;6.786;2023-06-10T06:42:50;21.80;95.80
36856;DHT22;22788;51.434;6.786;2023-06-10T06:45:17;21.80;95.90
36856;DHT22;22788;51.434;6.786;2023-06-10T06:47:42;21.80;95.30
36856;DHT22;22788;51.434;6.786;2023-06-10T06:50:09;21.90;95.80
36856;DHT22;22788;51.434;6.786;2023-06-10T06:52:34;21.90;95.50
36856;DHT22;22788;51.434;6.786;2023-06-10T06:55:00;21.90;95.50
36856;DHT22;22788;51.434;6.786;2023-06-10T06:57:26;21.90;94.80
36856;DHT22;22788;51.434;6.786;2023-06-10T06:59:51;21.90;95.20
36856;DHT22;22788;51.434;6.786;2023-06-10T07:02:18;21.90;94.40
36856;DHT22;22788;51.434;6.786;2023-06-10T07:04:44;21.90;95.00
36856;DHT22;22788;51.434;6.786;2023-06-10T07:07:09;21.90;95.40
36856;DHT22;22788;51.434;6.786;2023-06-10T07:09:35;21.90;94.50
36856;DHT22;22788;51.434;6.786;2023-06-10T07:12:00;21.90;94.10
36856;DHT22;22788;51.434;6.786;2023-06-10T07:14:26;21.90;93.80
36856;DHT22;22788;51.434;6.786;2023-06-10T07:16:52;21.90;93.80
36856;DHT22;22788;51.434;6.786;2023-06-10T07:19:19;22.00;95.10
36856;DHT22;22788;51.434;6.786;2023-06-10T07:21:44;22.00;94.60
36856;DHT22;22788;51.434;6.786;2023-06-10T07:24:10;22.00;94.30
36856;DHT22;22788;51.434;6.786;2023-06-10T07:26:35;22.00;94.90
36856;DHT22;22788;51.434;6.786;2023-06-10T07:29:01;22.00;94.40
36856;DHT22;22788;51.434;6.786;2023-06-10T07:31:27;22.10;95.00
36856;DHT22;22788;51.434;6.786;2023-06-10T07:33:52;22.10;94.90
36856;DHT22;22788;51.434;6.786;2023-06-10T07:36:19;22.10;93.50
36856;DHT22;22788;51.434;6.786;2023-06-10T07:38:45;22.10;94.70
36856;DHT22;22788;51.434;6.786;2023-06-10T07:41:10;22.20;93.50
36856;DHT22;22788;51.434;6.786;2023-06-10T07:43:36;22.20;93.70
36856;DHT22;22788;51.434;6.786;2023-06-10T07:46:02;22.20;93.80
36856;DHT22;22788;51.434;6.786;2023-06-10T07:48:27;22.30;93.20
36856;DHT22;22788;51.434;6.786;2023-06-10T07:50:53;22.30;92.90
36856;DHT22;22788;51.434;6.786;2023-06-10T07:53:20;22.30;93.10
36856;DHT22;22788;51.434;6.786;2023-06-10T07:55:46;22.40;93.30
36856;DHT22;22788;51.434;6.786;2023-06-10T07:58:11;22.40;94.00
36856;DHT22;22788;51.434;6.786;2023-06-10T08:00:37;22.30;94.20
36856;DHT22;22788;51.434;6.786;2023-06-10T08:03:02;22.30;94.40
36856;DHT22;22788;51.434;6.786;2023-06-10T08:05:28;22.30;93.00
36856;DHT22;22788;51.434;6.786;2023-06-10T08:07:54;22.30;94.00
36856;DHT22;22788;51.434;6.786;2023-06-10T08:10:21;22.40;92.80
36856;DHT22;22788;51.434;6.786;2023-06-10T08:12:46;22.40;93.00
36856;DHT22;22788;51.434;6.786;2023-06-10T08:15:12;22.50;93.10
36856;DHT22;22788;51.434;6.786;2023-06-10T08:17:38;22.50;93.70
36856;DHT22;22788;51.434;6.786;2023-06-10T08:20:04;22.50;93.50
36856;DHT22;22788;51.434;6.786;2023-06-10T08:22:30;22.50;93.90
36856;DHT22;22788;51.434;6.786;2023-06-10T08:24:55;22.60;93.80
36856;DHT22;22788;51.434;6.786;2023-06-10T08:27:23;22.60;93.50
36856;DHT22;22788;51.434;6.786;2023-06-10T08:29:48;22.60;93.30
36856;DHT22;22788;51.434;6.786;2023-06-10T08:32:14;22.70;93.20
36856;DHT22;22788;51.434;6.786;2023-06-10T08:34:39;22.80;93.60
36856;DHT22;22788;51.434;6.786;2023-06-10T08:37:06;22.90;92.90
36856;DHT22;22788;51.434;6.786;2023-06-10T08:39:32;22.90;93.60
36856;DHT22;22788;51.434;6.786;2023-06-10T08:42:08;22.80;93.80
36856;DHT22;22788;51.434;6.786;2023-06-10T08:44:36;22.80;92.80
36856;DHT22;22788;51.434;6.786;2023-06-10T08:47:08;22.90;93.50
36856;DHT22;22788;51.434;6.786;2023-06-10T08:49:43;23.00;92.70
36856;DHT22;22788;51.434;6.786;2023-06-10T08:52:13;23.10;93.00
36856;DHT22;22788;51.434;6.786;2023-06-10T08:54:42;23.20;93.10
36856;DHT22;22788;51.434;6.786;2023-06-10T08:57:09;23.10;93.40
36856;DHT22;22788;51.434;6.786;2023-06-10T08:59:36;23.00;92.80
36856;DHT22;22788;51.434;6.786;2023-06-10T09:02:04;23.00;93.20
36856;DHT22;22788;51.434;6.786;2023-06-10T09:04:30;23.00;93.40
36856;DHT22;22788;51.434;6.786;2023-06-10T09:06:56;22.90;94.20
36856;DHT22;22788;51.434;6.786;2023-06-10T09:09:23;23.00;94.00
36856;DHT22;22788;51.434;6.786;2023-06-10T09:11:49;22.90;94.00
36856;DHT22;22788;51.434;6.786;2023-06-10T09:14:15;22.90;94.00
36856;DHT22;22788;51.434;6.786;2023-06-10T09:16:42;22.90;94.10
36856;DHT22;22788;51.434;6.786;2023-06-10T09:19:08;22.90;94.30
36856;DHT22;22788;51.434;6.786;2023-06-10T09:21:34;23.00;94.20
36856;DHT22;22788;51.434;6.786;2023-06-10T09:23:59;23.00;94.30
36856;DHT22;22788;51.434;6.786;2023-06-10T09:26:28;23.00;94.20
36856;DHT22;22788;51.434;6.786;2023-06-10T09:29:02;23.10;93.60
36856;DHT22;22788;51.434;6.786;2023-06-10T09:31:28;23.20;94.20
36856;DHT22;22788;51.434;6.786;2023-06-10T09:33:55;23.20;93.50
36856;DHT22;22788;51.434;6.786;2023-06-10T09:36:29;23.40;93.30
36856;DHT22;22788;51.434;6.786;2023-06-10T09:38:56;23.60;93.50
36856;DHT22;22788;51.434;6.786;2023-06-10T09:41:22;23.80;92.30
36856;DHT22;22788;51.434;6.786;2023-06-10T09:43:47;24.00;91.80
36856;DHT22;22788;51.434;6.786;2023-06-10T09:46:16;24.10;91.90
36856;DHT22;22788;51.434;6.786;2023-06-10T09:48:42;24.00;92.20
36856;DHT22;22788;51.434;6.786;2023-06-10T09:51:10;24.00;92.70
36856;DHT22;22788;51.434;6.786;2023-06-10T09:53:36;23.80;92.80
36856;DHT22;22788;51.434;6.786;2023-06-10T09:56:01;23.60;91.80
36856;DHT22;22788;51.434;6.786;2023-06-10T09:58:38;23.60;92.70
36856;DHT22;22788;51.434;6.786;2023-06-10T10:01:09;23.40;93.30
36856;DHT22;22788;51.434;6.786;2023-06-10T10:03:43;23.40;93.60
36856;DHT22;22788;51.434;6.786;2023-06-10T10:06:11;23.40;93.50
36856;DHT22;22788;51.434;6.786;2023-06-10T10:08:36;23.70;93.10
36856;DHT22;22788;51.434;6.786;2023-06-10T10:11:02;23.60;93.40
36856;DHT22;22788;51.434;6.786;2023-06-10T10:13:29;23.50;93.20
36856;DHT22;22788;51.434;6.786;2023-06-10T10:16:01;23.70;93.40
36856;DHT22;22788;51.434;6.786;2023-06-10T10:18:29;23.80;92.00
36856;DHT22;22788;51.434;6.786;2023-06-10T10:20:59;24.10;91.90
36856;DHT22;22788;51.434;6.786;2023-06-10T10:23:33;24.30;92.40
36856;DHT22;22788;51.434;6.786;2023-06-10T10:26:00;24.10;92.20
36856;DHT22;22788;51.434;6.786;2023-06-10T10:28:37;24.10;91.30
36856;DHT22;22788;51.434;6.786;2023-06-10T10:31:09;24.10;92.80
36856;DHT22;22788;51.434;6.786;2023-06-10T10:33:42;24.10;92.90
36856;DHT22;22788;51.434;6.786;2023-06-10T10:36:11;24.00;93.00
36856;DHT22;22788;51.434;6.786;2023-06-10T10:38:39;24.10;91.70
36856;DHT22;22788;51.434;6.786;2023-06-10T10:41:05;24.30;90.60
36856;DHT22;22788;51.434;6.786;2023-06-10T10:43:31;24.40;92.30
36856;DHT22;22788;51.434;6.786;2023-06-10T10:46:00;24.20;92.60
36856;DHT22;22788;51.434;6.786;2023-06-10T10:48:27;24.30;91.30
36856;DHT22;22788;51.434;6.786;2023-06-10T10:50:58;24.30;91.40
36856;DHT22;22788;51.434;6.786;2023-06-10T10:53:24;24.30;92.50
36856;DHT22;22788;51.434;6.786;2023-06-10T10:55:59;24.30;90.90
36856;DHT22;22788;51.434;6.786;2023-06-10T10:58:25;24.40;91.70
36856;DHT22;22788;51.434;6.786;2023-06-10T11:00:50;24.80;92.00
36856;DHT22;22788;51.434;6.786;2023-06-10T11:03:17;24.80;91.60
36856;DHT22;22788;51.434;6.786;2023-06-10T11:05:43;25.00;90.10
36856;DHT22;22788;51.434;6.786;2023-06-10T11:08:09;24.90;91.30
36856;DHT22;22788;51.434;6.786;2023-06-10T11:10:37;25.00;91.50
36856;DHT22;22788;51.434;6.786;2023-06-10T11:13:08;24.70;90.30
36856;DHT22;22788;51.434;6.786;2023-06-10T11:15:38;24.70;91.70
36856;DHT22;22788;51.434;6.786;2023-06-10T11:18:12;24.80;91.40
36856;DHT22;22788;51.434;6.786;2023-06-10T11:21:01;25.00;90.50
36856;DHT22;22788;51.434;6.786;2023-06-10T11:23:41;25.00;89.40
36856;DHT22;22788;51.434;6.786;2023-06-10T11:26:11;24.90;91.00
36856;DHT22;22788;51.434;6.786;2023-06-10T11:28:38;25.00;90.30
36856;DHT22;22788;51.434;6.786;2023-06-10T11:31:04;25.20;91.20
36856;DHT22;22788;51.434;6.786;2023-06-10T11:33:30;25.50;90.70
36856;DHT22;22788;51.434;6.786;2023-06-10T11:35:56;25.40;90.60
36856;DHT22;22788;51.434;6.786;2023-06-10T11:38:22;25.40;85.90
36856;DHT22;22788;51.434;6.786;2023-06-10T11:40:48;25.60;90.40
36856;DHT22;22788;51.434;6.786;2023-06-10T11:43:15;25.40;90.70
36856;DHT22;22788;51.434;6.786;2023-06-10T11:45:42;25.60;84.60
36856;DHT22;22788;51.434;6.786;2023-06-10T11:48:09;25.60;86.70
36856;DHT22;22788;51.434;6.786;2023-06-10T11:50:35;25.80;87.30
36856;DHT22;22788;51.434;6.786;2023-06-10T11:53:01;25.90;88.60
36856;DHT22;22788;51.434;6.786;2023-06-10T11:55:43;26.10;85.70
36856;DHT22;22788;51.434;6.786;2023-06-10T11:58:13;25.80;89.00
36856;DHT22;22788;51.434;6.786;2023-06-10T12:00:45;25.70;88.60
36856;DHT22;22788;51.434;6.786;2023-06-10T12:03:11;25.60;86.90
36856;DHT22;22788;51.434;6.786;2023-06-10T12:05:37;25.70;89.30
36856;DHT22;22788;51.434;6.786;2023-06-10T12:08:09;25.80;89.00
36856;DHT22;22788;51.434;6.786;2023-06-10T12:10:39;25.60;89.10
36856;DHT22;22788;51.434;6.786;2023-06-10T12:13:05;25.50;84.80
36856;DHT22;22788;51.434;6.786;2023-06-10T12:15:31;26.00;80.30
36856;DHT22;22788;51.434;6.786;2023-06-10T12:17:58;26.30;86.90
36856;DHT22;22788;51.434;6.786;2023-06-10T12:20:27;26.10;87.20
36856;DHT22;22788;51.434;6.786;2023-06-10T12:22:53;25.80;88.10
36856;DHT22;22788;51.434;6.786;2023-06-10T12:25:24;26.00;81.30
36856;DHT22;22788;51.434;6.786;2023-06-10T12:27:51;26.30;84.30
36856;DHT22;22788;51.434;6.786;2023-06-10T12:30:19;26.40;83.40
36856;DHT22;22788;51.434;6.786;2023-06-10T12:32:46;26.10;87.40
36856;DHT22;22788;51.434;6.786;2023-06-10T12:35:16;26.00;82.40
36856;DHT22;22788;51.434;6.786;2023-06-10T12:37:41;26.10;85.30
36856;DHT22;22788;51.434;6.786;2023-06-10T12:40:08;26.00;86.50
36856;DHT22;22788;51.434;6.786;2023-06-10T12:42:35;25.90;87.60
36856;DHT22;22788;51.434;6.786;2023-06-10T12:45:01;26.00;83.10
36856;DHT22;22788;51.434;6.786;2023-06-10T12:47:30;26.10;87.30
36856;DHT22;22788;51.434;6.786;2023-06-10T12:49:56;26.00;87.30
36856;DHT22;22788;51.434;6.786;2023-06-10T12:52:23;26.00;87.10
36856;DHT22;22788;51.434;6.786;2023-06-10T12:54:48;26.00;77.40
36856;DHT22;22788;51.434;6.786;2023-06-10T12:57:14;26.20;87.10
36856;DHT22;22788;51.434;6.786;2023-06-10T12:59:39;26.10;77.50
36856;DHT22;22788;51.434;6.786;2023-06-10T13:02:05;26.10;82.60
36856;DHT22;22788;51.434;6.786;2023-06-10T13:04:31;26.20;85.90
36856;DHT22;22788;51.434;6.786;2023-06-10T13:06:56;26.30;82.80
36856;DHT22;22788;51.434;6.786;2023-06-10T13:09:23;26.50;83.60
36856;DHT22;22788;51.434;6.786;2023-06-10T13:11:49;26.70;80.90
36856;DHT22;22788;51.434;6.786;2023-06-10T13:14:15;26.70;84.90
36856;DHT22;22788;51.434;6.786;2023-06-10T13:16:40;26.80;84.90
36856;DHT22;22788;51.434;6.786;2023-06-10T13:19:06;26.90;79.80
36856;DHT22;22788;51.434;6.786;2023-06-10T13:21:32;27.00;83.50
36856;DHT22;22788;51.434;6.786;2023-06-10T13:23:58;27.00;82.10
36856;DHT22;22788;51.434;6.786;2023-06-10T13:26:25;26.80;80.40
36856;DHT22;22788;51.434;6.786;2023-06-10T13:28:50;26.80;80.50
36856;DHT22;22788;51.434;6.786;2023-06-10T13:31:16;26.70;80.70
36856;DHT22;22788;51.434;6.786;2023-06-10T13:33:42;26.50;84.90
36856;DHT22;22788;51.434;6.786;2023-06-10T13:36:07;26.40;85.20
36856;DHT22;22788;51.434;6.786;2023-06-10T13:38:33;26.50;81.40
36856;DHT22;22788;51.434;6.786;2023-06-10T13:40:59;26.80;80.30
36856;DHT22;22788;51.434;6.786;2023-06-10T13:43:26;26.70;79.90
36856;DHT22;22788;51.434;6.786;2023-06-10T13:45:51;26.90;83.10
36856;DHT22;22788;51.434;6.786;2023-06-10T13:48:17;26.80;84.10
36856;DHT22;22788;51.434;6.786;2023-06-10T13:50:42;26.80;83.40
36856;DHT22;22788;51.434;6.786;2023-06-10T13:53:08;26.60;83.10
36856;DHT22;22788;51.434;6.786;2023-06-10T13:55:34;26.50;85.00
36856;DHT22;22788;51.434;6.786;2023-06-10T13:57:59;26.40;80.10
36856;DHT22;22788;51.434;6.786;2023-06-10T14:00:26;26.60;78.50
36856;DHT22;22788;51.434;6.786;2023-06-10T14:02:53;27.10;76.80
36856;DHT22;22788;51.434;6.786;2023-06-10T14:05:18;27.50;77.80
36856;DHT22;22788;51.434;6.786;2023-06-10T14:07:44;27.40;81.60
36856;DHT22;22788;51.434;6.786;2023-06-10T14:10:10;27.20;82.60
36856;DHT22;22788;51.434;6.786;2023-06-10T14:12:35;27.10;78.90
36856;DHT22;22788;51.434;6.786;2023-06-10T14:15:01;27.30;77.10
36856;DHT22;22788;51.434;6.786;2023-06-10T14:17:28;27.30;82.10
36856;DHT22;22788;51.434;6.786;2023-06-10T14:19:54;27.00;82.80
36856;DHT22;22788;51.434;6.786;2023-06-10T14:22:19;27.10;78.40
36856;DHT22;22788;51.434;6.786;2023-06-10T14:24:45;27.30;78.80
36856;DHT22;22788;51.434;6.786;2023-06-10T14:27:10;27.20;81.40
36856;DHT22;22788;51.434;6.786;2023-06-10T14:29:36;27.10;78.20
36856;DHT22;22788;51.434;6.786;2023-06-10T14:32:02;26.90;81.40
36856;DHT22;22788;51.434;6.786;2023-06-10T14:34:29;26.80;80.40
36856;DHT22;22788;51.434;6.786;2023-06-10T14:36:54;26.90;78.30
36856;DHT22;22788;51.434;6.786;2023-06-10T14:39:20;27.20;77.70
36856;DHT22;22788;51.434;6.786;2023-06-10T14:41:46;27.10;76.90
36856;DHT22;22788;51.434;6.786;2023-06-10T14:44:11;27.10;81.20
36856;DHT22;22788;51.434;6.786;2023-06-10T14:46:37;27.10;78.00
36856;DHT22;22788;51.434;6.786;2023-06-10T14:49:03;27.30;76.30
36856;DHT22;22788;51.434;6.786;2023-06-10T14:51:30;27.30;77.90
36856;DHT22;22788;51.434;6.786;2023-06-10T14:53:55;27.30;80.30
36856;DHT22;22788;51.434;6.786;2023-06-10T14:56:21;27.30;80.50
36856;DHT22;22788;51.434;6.786;2023-06-10T14:58:46;27.30;77.30
36856;DHT22;22788;51.434;6.786;2023-06-10T15:01:12;27.30;78.60
36856;DHT22;22788;51.434;6.786;2023-06-10T15:03:37;27.60;73.00
36856;DHT22;22788;51.434;6.786;2023-06-10T15:06:03;27.80;79.40
36856;DHT22;22788;51.434;6.786;2023-06-10T15:08:30;27.60;78.50
36856;DHT22;22788;51.434;6.786;2023-06-10T15:10:56;27.30;80.70
36856;DHT22;22788;51.434;6.786;2023-06-10T15:13:22;27.00;76.40
36856;DHT22;22788;51.434;6.786;2023-06-10T15:15:47;27.40;77.00
36856;DHT22;22788;51.434;6.786;2023-06-10T15:18:13;27.50;76.10
36856;DHT22;22788;51.434;6.786;2023-06-10T15:20:39;27.30;79.60
36856;DHT22;22788;51.434;6.786;2023-06-10T15:23:04;27.10;81.00
36856;DHT22;22788;51.434;6.786;2023-06-10T15:25:31;26.90;80.00